Terminal Aerodrome Forecast
Issued by NWS Cleveland, OH

Home | Current Version | Previous Version | Graphics & Text | Print | Product List | Glossary On
Versions: 1 2 3 4 5 6 7 8 9 10 11 12 13 14 15
000
FTUS41 KCLE 290300 AAA
TAFCAK
TAF AMD
KCAK 290309Z 2903/2924 23010KT P6SM SCT025 OVC150
     FM291500 25012G20KT P6SM BKN035
     FM292100 28010G20KT P6SM BKN035 OVC060=

USA.gov is the U.S. government's official web portal to all federal, state and local government web resources and services.